sensor_id;sensor_type;location;lat;lon;timestamp;temperature;humidity
64561;DHT22;50960;46.838;16.838;2024-02-23T00:03:53;11.60;96.80
64561;DHT22;50960;46.838;16.838;2024-02-23T00:06:21;11.60;96.40
64561;DHT22;50960;46.838;16.838;2024-02-23T00:08:54;11.60;96.80
64561;DHT22;50960;46.838;16.838;2024-02-23T00:11:21;11.60;96.70
64561;DHT22;50960;46.838;16.838;2024-02-23T00:13:47;11.60;96.80
64561;DHT22;50960;46.838;16.838;2024-02-23T00:16:13;11.60;96.50
64561;DHT22;50960;46.838;16.838;2024-02-23T00:18:39;11.70;99.90
64561;DHT22;50960;46.838;16.838;2024-02-23T00:21:05;11.60;96.60
64561;DHT22;50960;46.838;16.838;2024-02-23T00:23:32;11.70;96.10
64561;DHT22;50960;46.838;16.838;2024-02-23T00:25:58;11.70;95.90
64561;DHT22;50960;46.838;16.838;2024-02-23T00:28:24;11.70;96.10
64561;DHT22;50960;46.838;16.838;2024-02-23T00:30:50;11.70;96.00
64561;DHT22;50960;46.838;16.838;2024-02-23T00:33:17;11.70;96.30
64561;DHT22;50960;46.838;16.838;2024-02-23T00:35:43;11.70;96.40
64561;DHT22;50960;46.838;16.838;2024-02-23T00:38:09;11.70;96.90
64561;DHT22;50960;46.838;16.838;2024-02-23T00:40:35;11.60;96.90
64561;DHT22;50960;46.838;16.838;2024-02-23T00:43:02;11.70;97.40
64561;DHT22;50960;46.838;16.838;2024-02-23T00:45:29;11.60;97.20
64561;DHT22;50960;46.838;16.838;2024-02-23T00:47:56;11.60;96.90
64561;DHT22;50960;46.838;16.838;2024-02-23T00:50:26;11.60;97.10
64561;DHT22;50960;46.838;16.838;2024-02-23T00:52:53;11.60;97.60
64561;DHT22;50960;46.838;16.838;2024-02-23T00:55:20;11.70;97.50
64561;DHT22;50960;46.838;16.838;2024-02-23T00:57:46;11.60;96.80
64561;DHT22;50960;46.838;16.838;2024-02-23T01:00:12;11.70;97.60
64561;DHT22;50960;46.838;16.838;2024-02-23T01:02:39;11.60;96.70
64561;DHT22;50960;46.838;16.838;2024-02-23T01:05:06;11.60;96.20
64561;DHT22;50960;46.838;16.838;2024-02-23T01:07:35;11.60;96.60
64561;DHT22;50960;46.838;16.838;2024-02-23T01:10:01;11.60;95.90
64561;DHT22;50960;46.838;16.838;2024-02-23T01:12:29;11.60;96.10
64561;DHT22;50960;46.838;16.838;2024-02-23T01:14:56;11.60;95.80
64561;DHT22;50960;46.838;16.838;2024-02-23T01:17:23;11.60;95.40
64561;DHT22;50960;46.838;16.838;2024-02-23T01:19:49;11.60;94.60
64561;DHT22;50960;46.838;16.838;2024-02-23T01:22:16;11.70;94.60
64561;DHT22;50960;46.838;16.838;2024-02-23T01:24:42;11.60;94.40
64561;DHT22;50960;46.838;16.838;2024-02-23T01:27:08;11.60;94.20
64561;DHT22;50960;46.838;16.838;2024-02-23T01:29:35;11.60;94.50
64561;DHT22;50960;46.838;16.838;2024-02-23T01:32:01;11.60;94.40
64561;DHT22;50960;46.838;16.838;2024-02-23T01:36:54;11.60;93.70
64561;DHT22;50960;46.838;16.838;2024-02-23T01:39:20;11.70;93.20
64561;DHT22;50960;46.838;16.838;2024-02-23T01:41:46;11.70;93.40
64561;DHT22;50960;46.838;16.838;2024-02-23T01:44:13;11.70;93.20
64561;DHT22;50960;46.838;16.838;2024-02-23T01:46:41;11.70;93.60
64561;DHT22;50960;46.838;16.838;2024-02-23T01:49:08;11.60;93.40
64561;DHT22;50960;46.838;16.838;2024-02-23T01:51:35;11.70;93.20
64561;DHT22;50960;46.838;16.838;2024-02-23T01:56:29;11.60;92.40
64561;DHT22;50960;46.838;16.838;2024-02-23T01:58:55;11.60;92.90
64561;DHT22;50960;46.838;16.838;2024-02-23T02:01:22;11.60;92.40
64561;DHT22;50960;46.838;16.838;2024-02-23T02:03:48;11.70;92.00
64561;DHT22;50960;46.838;16.838;2024-02-23T02:06:14;11.70;91.70
64561;DHT22;50960;46.838;16.838;2024-02-23T02:08:41;11.70;91.70
64561;DHT22;50960;46.838;16.838;2024-02-23T02:11:07;11.70;92.00
64561;DHT22;50960;46.838;16.838;2024-02-23T02:13:33;11.60;92.20
64561;DHT22;50960;46.838;16.838;2024-02-23T02:16:00;11.60;92.10
64561;DHT22;50960;46.838;16.838;2024-02-23T02:18:28;11.60;91.60
64561;DHT22;50960;46.838;16.838;2024-02-23T02:20:55;11.60;92.10
64561;DHT22;50960;46.838;16.838;2024-02-23T02:23:23;11.50;92.50
64561;DHT22;50960;46.838;16.838;2024-02-23T02:25:56;11.50;92.70
64561;DHT22;50960;46.838;16.838;2024-02-23T02:28:24;11.50;92.80
64561;DHT22;50960;46.838;16.838;2024-02-23T02:30:51;11.40;93.00
64561;DHT22;50960;46.838;16.838;2024-02-23T02:33:18;11.50;92.80
64561;DHT22;50960;46.838;16.838;2024-02-23T02:35:45;11.40;92.80
64561;DHT22;50960;46.838;16.838;2024-02-23T02:38:11;11.40;92.90
64561;DHT22;50960;46.838;16.838;2024-02-23T02:40:38;11.40;93.30
64561;DHT22;50960;46.838;16.838;2024-02-23T02:43:04;11.40;93.80
64561;DHT22;50960;46.838;16.838;2024-02-23T02:45:31;11.30;94.30
64561;DHT22;50960;46.838;16.838;2024-02-23T02:47:59;11.30;94.70
64561;DHT22;50960;46.838;16.838;2024-02-23T02:50:28;11.20;95.90
64561;DHT22;50960;46.838;16.838;2024-02-23T03:02:40;10.90;97.30
64561;DHT22;50960;46.838;16.838;2024-02-23T03:05:06;11.10;99.90
64561;DHT22;50960;46.838;16.838;2024-02-23T03:09:59;11.00;99.90
64561;DHT22;50960;46.838;16.838;2024-02-23T03:12:25;10.90;97.30
64561;DHT22;50960;46.838;16.838;2024-02-23T03:17:21;10.80;97.50
64561;DHT22;50960;46.838;16.838;2024-02-23T03:19:47;10.70;97.40
64561;DHT22;50960;46.838;16.838;2024-02-23T03:22:16;11.00;98.30
64561;DHT22;50960;46.838;16.838;2024-02-23T03:24:42;10.70;98.30
64561;DHT22;50960;46.838;16.838;2024-02-23T03:27:08;10.70;98.10
64561;DHT22;50960;46.838;16.838;2024-02-23T03:29:34;10.70;98.10
64561;DHT22;50960;46.838;16.838;2024-02-23T03:32:01;10.70;98.20
64561;DHT22;50960;46.838;16.838;2024-02-23T03:39:20;10.60;97.70
64561;DHT22;50960;46.838;16.838;2024-02-23T03:41:46;10.70;97.70
64561;DHT22;50960;46.838;16.838;2024-02-23T03:46:41;10.70;96.80
64561;DHT22;50960;46.838;16.838;2024-02-23T03:51:34;10.60;96.60
64561;DHT22;50960;46.838;16.838;2024-02-23T03:54:02;12.00;99.90
64561;DHT22;50960;46.838;16.838;2024-02-23T03:56:29;7.30;99.90
64561;DHT22;50960;46.838;16.838;2024-02-23T03:58:55;10.70;96.00
64561;DHT22;50960;46.838;16.838;2024-02-23T04:03:48;10.70;98.60
64561;DHT22;50960;46.838;16.838;2024-02-23T04:06:14;10.80;97.80
64561;DHT22;50960;46.838;16.838;2024-02-23T04:08:40;10.80;98.10
64561;DHT22;50960;46.838;16.838;2024-02-23T04:11:07;10.70;96.90
64561;DHT22;50960;46.838;16.838;2024-02-23T04:13:33;10.70;94.70
64561;DHT22;50960;46.838;16.838;2024-02-23T04:16:01;10.60;94.70
64561;DHT22;50960;46.838;16.838;2024-02-23T04:18:27;10.70;95.10
64561;DHT22;50960;46.838;16.838;2024-02-23T04:20:53;10.60;95.20
64561;DHT22;50960;46.838;16.838;2024-02-23T04:23:20;10.70;99.90
64561;DHT22;50960;46.838;16.838;2024-02-23T04:25:46;10.70;99.90
64561;DHT22;50960;46.838;16.838;2024-02-23T04:28:12;10.80;96.40
64561;DHT22;50960;46.838;16.838;2024-02-23T04:33:05;11.40;99.90
64561;DHT22;50960;46.838;16.838;2024-02-23T04:35:31;10.80;99.90
64561;DHT22;50960;46.838;16.838;2024-02-23T04:37:57;10.70;99.90
64561;DHT22;50960;46.838;16.838;2024-02-23T04:40:23;10.50;95.10
64561;DHT22;50960;46.838;16.838;2024-02-23T04:42:49;10.60;95.40
64561;DHT22;50960;46.838;16.838;2024-02-23T04:45:16;10.60;95.40
64561;DHT22;50960;46.838;16.838;2024-02-23T04:47:42;10.60;95.40
64561;DHT22;50960;46.838;16.838;2024-02-23T04:50:08;10.60;95.50
64561;DHT22;50960;46.838;16.838;2024-02-23T04:55:01;10.60;94.90
64561;DHT22;50960;46.838;16.838;2024-02-23T04:57:27;10.50;95.30
64561;DHT22;50960;46.838;16.838;2024-02-23T04:59:53;10.60;96.10
64561;DHT22;50960;46.838;16.838;2024-02-23T05:02:21;10.60;95.60
64561;DHT22;50960;46.838;16.838;2024-02-23T05:09:40;10.50;94.90
64561;DHT22;50960;46.838;16.838;2024-02-23T05:12:09;10.50;95.30
64561;DHT22;50960;46.838;16.838;2024-02-23T05:14:36;10.40;95.10
64561;DHT22;50960;46.838;16.838;2024-02-23T05:17:02;10.50;95.20
64561;DHT22;50960;46.838;16.838;2024-02-23T05:24:22;10.40;95.10
64561;DHT22;50960;46.838;16.838;2024-02-23T05:29:15;10.40;95.20
64561;DHT22;50960;46.838;16.838;2024-02-23T05:36:38;10.40;95.30
64561;DHT22;50960;46.838;16.838;2024-02-23T05:39:05;10.40;95.70
64561;DHT22;50960;46.838;16.838;2024-02-23T05:41:33;10.40;95.60
64561;DHT22;50960;46.838;16.838;2024-02-23T05:44:00;10.40;95.80
64561;DHT22;50960;46.838;16.838;2024-02-23T05:46:26;10.30;96.30
64561;DHT22;50960;46.838;16.838;2024-02-23T05:48:53;10.30;96.50
64561;DHT22;50960;46.838;16.838;2024-02-23T05:51:19;10.30;96.80
64561;DHT22;50960;46.838;16.838;2024-02-23T05:53:45;10.30;96.30
64561;DHT22;50960;46.838;16.838;2024-02-23T05:56:11;10.30;96.70
64561;DHT22;50960;46.838;16.838;2024-02-23T05:58:38;10.30;96.30
64561;DHT22;50960;46.838;16.838;2024-02-23T06:01:04;10.30;96.40
64561;DHT22;50960;46.838;16.838;2024-02-23T06:03:30;10.30;95.80
64561;DHT22;50960;46.838;16.838;2024-02-23T06:05:57;10.30;96.10
64561;DHT22;50960;46.838;16.838;2024-02-23T06:08:23;10.30;96.10
64561;DHT22;50960;46.838;16.838;2024-02-23T06:10:49;10.30;95.90
64561;DHT22;50960;46.838;16.838;2024-02-23T06:13:16;10.30;96.30
64561;DHT22;50960;46.838;16.838;2024-02-23T17:13:45;11.60;97.20
64561;DHT22;50960;46.838;16.838;2024-02-23T17:16:13;11.50;97.50
64561;DHT22;50960;46.838;16.838;2024-02-23T17:18:39;11.50;97.80
64561;DHT22;50960;46.838;16.838;2024-02-23T17:21:05;11.40;98.00
64561;DHT22;50960;46.838;16.838;2024-02-23T17:23:32;11.40;98.10
64561;DHT22;50960;46.838;16.838;2024-02-23T17:25:58;11.30;98.20
64561;DHT22;50960;46.838;16.838;2024-02-23T17:28:24;11.40;98.30
64561;DHT22;50960;46.838;16.838;2024-02-23T17:30:50;11.40;98.50
64561;DHT22;50960;46.838;16.838;2024-02-23T17:33:17;11.40;98.50
64561;DHT22;50960;46.838;16.838;2024-02-23T17:35:46;11.40;98.70
64561;DHT22;50960;46.838;16.838;2024-02-23T17:38:12;11.30;98.70
64561;DHT22;50960;46.838;16.838;2024-02-23T17:40:39;11.30;98.70
64561;DHT22;50960;46.838;16.838;2024-02-23T17:43:05;11.30;98.90
64561;DHT22;50960;46.838;16.838;2024-02-23T17:45:31;11.30;98.50
64561;DHT22;50960;46.838;16.838;2024-02-23T17:47:57;11.20;98.80
64561;DHT22;50960;46.838;16.838;2024-02-23T17:50:24;11.30;98.80
64561;DHT22;50960;46.838;16.838;2024-02-23T17:52:53;11.30;98.90
64561;DHT22;50960;46.838;16.838;2024-02-23T17:55:20;11.20;98.70
64561;DHT22;50960;46.838;16.838;2024-02-23T17:57:46;11.20;98.90
64561;DHT22;50960;46.838;16.838;2024-02-23T18:00:13;11.20;99.00
64561;DHT22;50960;46.838;16.838;2024-02-23T18:02:39;11.20;98.60
64561;DHT22;50960;46.838;16.838;2024-02-23T18:05:05;11.20;99.10
64561;DHT22;50960;46.838;16.838;2024-02-23T18:09:59;11.20;98.70
64561;DHT22;50960;46.838;16.838;2024-02-23T18:12:25;11.20;98.30
64561;DHT22;50960;46.838;16.838;2024-02-23T18:17:18;11.20;98.20
64561;DHT22;50960;46.838;16.838;2024-02-23T18:19:44;11.20;98.50
64561;DHT22;50960;46.838;16.838;2024-02-23T18:29:34;11.30;97.40
64561;DHT22;50960;46.838;16.838;2024-02-23T18:32:01;11.30;97.70
64561;DHT22;50960;46.838;16.838;2024-02-23T18:34:27;11.30;97.40
64561;DHT22;50960;46.838;16.838;2024-02-23T18:36:53;11.30;97.70
64561;DHT22;50960;46.838;16.838;2024-02-23T18:39:19;11.20;97.70
64561;DHT22;50960;46.838;16.838;2024-02-23T18:41:45;11.20;97.90
64561;DHT22;50960;46.838;16.838;2024-02-23T18:44:12;11.20;97.70
64561;DHT22;50960;46.838;16.838;2024-02-23T18:46:39;11.20;97.70
64561;DHT22;50960;46.838;16.838;2024-02-23T18:49:05;11.10;98.00
64561;DHT22;50960;46.838;16.838;2024-02-23T18:51:32;11.10;97.90
64561;DHT22;50960;46.838;16.838;2024-02-23T18:53:58;11.10;97.80
64561;DHT22;50960;46.838;16.838;2024-02-23T18:56:24;11.10;97.80
64561;DHT22;50960;46.838;16.838;2024-02-23T18:58:52;11.00;97.50
64561;DHT22;50960;46.838;16.838;2024-02-23T19:01:18;11.10;97.80
64561;DHT22;50960;46.838;16.838;2024-02-23T19:03:44;11.10;97.70
64561;DHT22;50960;46.838;16.838;2024-02-23T19:06:10;11.00;97.70
64561;DHT22;50960;46.838;16.838;2024-02-23T19:11:03;11.00;97.40
64561;DHT22;50960;46.838;16.838;2024-02-23T19:13:30;11.00;97.70
64561;DHT22;50960;46.838;16.838;2024-02-23T19:15:56;10.90;98.00
64561;DHT22;50960;46.838;16.838;2024-02-23T19:18:22;10.90;98.20
64561;DHT22;50960;46.838;16.838;2024-02-23T19:20:49;11.00;97.70
64561;DHT22;50960;46.838;16.838;2024-02-23T19:23:15;10.90;97.90
64561;DHT22;50960;46.838;16.838;2024-02-23T19:25:42;10.90;97.90
64561;DHT22;50960;46.838;16.838;2024-02-23T19:28:08;10.90;97.80
64561;DHT22;50960;46.838;16.838;2024-02-23T19:30:35;10.80;97.40
64561;DHT22;50960;46.838;16.838;2024-02-23T19:33:02;10.80;97.70
64561;DHT22;50960;46.838;16.838;2024-02-23T19:35:28;10.80;97.60
64561;DHT22;50960;46.838;16.838;2024-02-23T19:37:54;10.90;97.70
64561;DHT22;50960;46.838;16.838;2024-02-23T19:40:21;10.80;97.50
64561;DHT22;50960;46.838;16.838;2024-02-23T19:42:49;10.90;97.80
64561;DHT22;50960;46.838;16.838;2024-02-23T19:45:16;10.80;97.70
64561;DHT22;50960;46.838;16.838;2024-02-23T19:47:42;10.80;97.90
64561;DHT22;50960;46.838;16.838;2024-02-23T19:50:09;10.80;97.90
64561;DHT22;50960;46.838;16.838;2024-02-23T19:52:35;10.70;97.90
64561;DHT22;50960;46.838;16.838;2024-02-23T19:55:01;10.70;97.90
64561;DHT22;50960;46.838;16.838;2024-02-23T19:57:27;10.70;97.60
64561;DHT22;50960;46.838;16.838;2024-02-23T19:59:56;10.70;97.60
64561;DHT22;50960;46.838;16.838;2024-02-23T20:02:22;10.80;97.40
64561;DHT22;50960;46.838;16.838;2024-02-23T20:04:48;10.70;97.50
64561;DHT22;50960;46.838;16.838;2024-02-23T20:07:18;10.70;97.10
64561;DHT22;50960;46.838;16.838;2024-02-23T20:09:45;10.80;96.80
64561;DHT22;50960;46.838;16.838;2024-02-23T20:12:11;10.80;96.30
64561;DHT22;50960;46.838;16.838;2024-02-23T20:14:39;10.90;96.30
64561;DHT22;50960;46.838;16.838;2024-02-23T20:17:05;10.90;96.20
64561;DHT22;50960;46.838;16.838;2024-02-23T20:19:34;10.90;96.10
64561;DHT22;50960;46.838;16.838;2024-02-23T20:24:30;11.00;99.90
64561;DHT22;50960;46.838;16.838;2024-02-23T20:29:26;11.00;95.90
64561;DHT22;50960;46.838;16.838;2024-02-23T20:31:52;11.00;96.10
64561;DHT22;50960;46.838;16.838;2024-02-23T20:34:18;11.00;96.00
64561;DHT22;50960;46.838;16.838;2024-02-23T20:39:17;11.10;95.70
64561;DHT22;50960;46.838;16.838;2024-02-23T20:41:43;11.30;99.70
64561;DHT22;50960;46.838;16.838;2024-02-23T20:49:03;11.20;94.80
64561;DHT22;50960;46.838;16.838;2024-02-23T20:51:31;11.20;95.40
64561;DHT22;50960;46.838;16.838;2024-02-23T20:53:57;11.10;95.60
64561;DHT22;50960;46.838;16.838;2024-02-23T20:56:24;11.30;97.10
64561;DHT22;50960;46.838;16.838;2024-02-23T20:58:53;11.20;97.70
64561;DHT22;50960;46.838;16.838;2024-02-23T21:01:19;11.10;97.90
64561;DHT22;50960;46.838;16.838;2024-02-23T21:03:46;11.20;98.50
64561;DHT22;50960;46.838;16.838;2024-02-23T21:06:12;11.10;97.60
64561;DHT22;50960;46.838;16.838;2024-02-23T21:08:38;11.10;97.50
64561;DHT22;50960;46.838;16.838;2024-02-23T21:11:05;11.10;97.90
64561;DHT22;50960;46.838;16.838;2024-02-23T21:13:31;11.10;99.90
64561;DHT22;50960;46.838;16.838;2024-02-23T21:15:58;11.10;99.20
64561;DHT22;50960;46.838;16.838;2024-02-23T21:18:24;10.90;96.10
64561;DHT22;50960;46.838;16.838;2024-02-23T21:20:50;10.90;96.10
64561;DHT22;50960;46.838;16.838;2024-02-23T21:23:17;11.00;96.10
64561;DHT22;50960;46.838;16.838;2024-02-23T21:25:43;11.00;96.60
64561;DHT22;50960;46.838;16.838;2024-02-23T21:28:10;11.00;96.40
64561;DHT22;50960;46.838;16.838;2024-02-23T21:30:40;11.10;96.40
64561;DHT22;50960;46.838;16.838;2024-02-23T21:33:11;11.10;96.40
64561;DHT22;50960;46.838;16.838;2024-02-23T21:35:37;11.00;96.00
64561;DHT22;50960;46.838;16.838;2024-02-23T21:38:03;11.00;96.20
64561;DHT22;50960;46.838;16.838;2024-02-23T21:40:30;11.00;98.50
64561;DHT22;50960;46.838;16.838;2024-02-23T21:42:56;11.10;97.90
64561;DHT22;50960;46.838;16.838;2024-02-23T21:45:22;11.00;94.00
64561;DHT22;50960;46.838;16.838;2024-02-23T21:47:49;11.00;94.30
64561;DHT22;50960;46.838;16.838;2024-02-23T21:50:16;11.00;97.70
64561;DHT22;50960;46.838;16.838;2024-02-23T21:52:46;11.20;95.40
64561;DHT22;50960;46.838;16.838;2024-02-23T21:55:12;11.20;94.60
64561;DHT22;50960;46.838;16.838;2024-02-23T21:57:39;11.10;94.60
64561;DHT22;50960;46.838;16.838;2024-02-23T22:00:06;11.00;94.40
64561;DHT22;50960;46.838;16.838;2024-02-23T22:02:32;11.00;94.60
64561;DHT22;50960;46.838;16.838;2024-02-23T22:05:00;11.10;94.50
64561;DHT22;50960;46.838;16.838;2024-02-23T22:07:27;11.10;94.60
64561;DHT22;50960;46.838;16.838;2024-02-23T22:09:53;11.10;94.50
64561;DHT22;50960;46.838;16.838;2024-02-23T22:12:23;11.10;94.50
64561;DHT22;50960;46.838;16.838;2024-02-23T22:14:50;11.00;94.40
64561;DHT22;50960;46.838;16.838;2024-02-23T22:17:16;11.10;94.00
64561;DHT22;50960;46.838;16.838;2024-02-23T22:19:42;11.10;93.80
64561;DHT22;50960;46.838;16.838;2024-02-23T22:22:09;11.10;93.90
64561;DHT22;50960;46.838;16.838;2024-02-23T22:24:35;11.10;93.90
64561;DHT22;50960;46.838;16.838;2024-02-23T22:27:02;11.10;94.10
64561;DHT22;50960;46.838;16.838;2024-02-23T22:29:28;11.00;94.20
64561;DHT22;50960;46.838;16.838;2024-02-23T22:31:55;11.10;94.30
64561;DHT22;50960;46.838;16.838;2024-02-23T22:34:21;11.10;94.10
64561;DHT22;50960;46.838;16.838;2024-02-23T22:36:47;11.10;94.20
64561;DHT22;50960;46.838;16.838;2024-02-23T22:39:13;11.10;94.00
64561;DHT22;50960;46.838;16.838;2024-02-23T22:41:40;11.10;94.50
64561;DHT22;50960;46.838;16.838;2024-02-23T22:44:06;11.10;94.10
64561;DHT22;50960;46.838;16.838;2024-02-23T22:46:33;11.10;94.00
64561;DHT22;50960;46.838;16.838;2024-02-23T22:48:59;11.20;95.50
64561;DHT22;50960;46.838;16.838;2024-02-23T22:51:26;11.10;94.30
64561;DHT22;50960;46.838;16.838;2024-02-23T22:53:52;11.20;95.50
64561;DHT22;50960;46.838;16.838;2024-02-23T22:56:19;11.00;94.30
64561;DHT22;50960;46.838;16.838;2024-02-23T22:58:45;11.00;94.30
64561;DHT22;50960;46.838;16.838;2024-02-23T23:01:11;11.20;99.90
64561;DHT22;50960;46.838;16.838;2024-02-23T23:03:37;11.20;99.90
64561;DHT22;50960;46.838;16.838;2024-02-23T23:08:31;11.20;99.90
64561;DHT22;50960;46.838;16.838;2024-02-23T23:10:57;11.10;99.90
64561;DHT22;50960;46.838;16.838;2024-02-23T23:15:51;11.10;93.80
64561;DHT22;50960;46.838;16.838;2024-02-23T23:18:17;11.30;95.20
64561;DHT22;50960;46.838;16.838;2024-02-23T23:20:45;13.00;99.90
64561;DHT22;50960;46.838;16.838;2024-02-23T23:23:11;11.40;99.90
64561;DHT22;50960;46.838;16.838;2024-02-23T23:25:38;11.30;93.50
64561;DHT22;50960;46.838;16.838;2024-02-23T23:28:04;11.30;93.30
64561;DHT22;50960;46.838;16.838;2024-02-23T23:30:30;11.30;93.30
64561;DHT22;50960;46.838;16.838;2024-02-23T23:32:56;11.30;93.40
64561;DHT22;50960;46.838;16.838;2024-02-23T23:35:23;11.30;93.60
64561;DHT22;50960;46.838;16.838;2024-02-23T23:40:16;11.40;93.30
64561;DHT22;50960;46.838;16.838;2024-02-23T23:42:42;11.30;93.70
64561;DHT22;50960;46.838;16.838;2024-02-23T23:45:09;11.30;93.50
64561;DHT22;50960;46.838;16.838;2024-02-23T23:47:35;11.30;93.60
64561;DHT22;50960;46.838;16.838;2024-02-23T23:50:02;11.30;93.60
64561;DHT22;50960;46.838;16.838;2024-02-23T23:52:28;11.20;93.70
64561;DHT22;50960;46.838;16.838;2024-02-23T23:54:54;11.30;93.60
64561;DHT22;50960;46.838;16.838;2024-02-23T23:57:20;11.30;93.50
64561;DHT22;50960;46.838;16.838;2024-02-23T23:59:46;11.30;93.50
